sensor_id;sensor_type;location;lat;lon;timestamp;P1;durP1;ratioP1;P2;durP2;ratioP2
54937;SDS011;52756;52.826;6.214;2022-12-07T00:01:06;3.67;;;1.10;;
54937;SDS011;52756;52.826;6.214;2022-12-07T00:03:39;3.50;;;1.05;;
54937;SDS011;52756;52.826;6.214;2022-12-07T00:06:07;4.78;;;1.05;;
54937;SDS011;52756;52.826;6.214;2022-12-07T00:08:35;4.18;;;1.17;;
54937;SDS011;52756;52.826;6.214;2022-12-07T00:11:05;3.88;;;0.88;;
54937;SDS011;52756;52.826;6.214;2022-12-07T00:13:32;1.92;;;0.70;;
54937;SDS011;52756;52.826;6.214;2022-12-07T00:16:02;3.47;;;0.95;;
54937;SDS011;52756;52.826;6.214;2022-12-07T00:18:36;4.95;;;1.10;;
54937;SDS011;52756;52.826;6.214;2022-12-07T00:21:12;5.53;;;1.27;;
54937;SDS011;52756;52.826;6.214;2022-12-07T00:23:40;3.58;;;1.10;;
54937;SDS011;52756;52.826;6.214;2022-12-07T00:26:08;3.33;;;1.23;;
54937;SDS011;52756;52.826;6.214;2022-12-07T00:28:47;3.03;;;0.90;;
54937;SDS011;52756;52.826;6.214;2022-12-07T00:31:15;5.60;;;1.00;;
54937;SDS011;52756;52.826;6.214;2022-12-07T00:33:42;5.55;;;1.08;;
54937;SDS011;52756;52.826;6.214;2022-12-07T00:36:09;6.35;;;1.20;;
54937;SDS011;52756;52.826;6.214;2022-12-07T00:38:37;5.78;;;1.65;;
54937;SDS011;52756;52.826;6.214;2022-12-07T00:41:07;2.75;;;0.93;;
54937;SDS011;52756;52.826;6.214;2022-12-07T00:43:40;3.60;;;0.90;;
54937;SDS011;52756;52.826;6.214;2022-12-07T00:46:07;5.60;;;1.52;;
54937;SDS011;52756;52.826;6.214;2022-12-07T00:48:33;3.97;;;0.88;;
54937;SDS011;52756;52.826;6.214;2022-12-07T00:50:59;5.60;;;1.25;;
54937;SDS011;52756;52.826;6.214;2022-12-07T00:53:25;5.47;;;0.90;;
54937;SDS011;52756;52.826;6.214;2022-12-07T00:55:51;4.90;;;1.30;;
54937;SDS011;52756;52.826;6.214;2022-12-07T00:58:17;7.53;;;1.33;;
54937;SDS011;52756;52.826;6.214;2022-12-07T01:00:43;6.85;;;1.60;;
54937;SDS011;52756;52.826;6.214;2022-12-07T01:03:11;5.00;;;1.20;;
54937;SDS011;52756;52.826;6.214;2022-12-07T01:05:38;4.72;;;1.20;;
54937;SDS011;52756;52.826;6.214;2022-12-07T01:08:04;2.60;;;0.90;;
54937;SDS011;52756;52.826;6.214;2022-12-07T01:10:30;5.70;;;1.13;;
54937;SDS011;52756;52.826;6.214;2022-12-07T01:12:56;4.15;;;1.15;;
54937;SDS011;52756;52.826;6.214;2022-12-07T01:15:23;6.43;;;1.35;;
54937;SDS011;52756;52.826;6.214;2022-12-07T01:17:49;6.88;;;1.27;;
54937;SDS011;52756;52.826;6.214;2022-12-07T01:20:14;9.05;;;1.40;;
54937;SDS011;52756;52.826;6.214;2022-12-07T01:22:41;4.57;;;1.00;;
54937;SDS011;52756;52.826;6.214;2022-12-07T01:25:08;4.45;;;1.23;;
54937;SDS011;52756;52.826;6.214;2022-12-07T01:27:36;5.70;;;1.73;;
54937;SDS011;52756;52.826;6.214;2022-12-07T01:30:03;4.88;;;1.30;;
54937;SDS011;52756;52.826;6.214;2022-12-07T01:32:31;6.82;;;1.25;;
54937;SDS011;52756;52.826;6.214;2022-12-07T01:34:57;6.47;;;1.35;;
54937;SDS011;52756;52.826;6.214;2022-12-07T01:37:22;4.75;;;1.05;;
54937;SDS011;52756;52.826;6.214;2022-12-07T01:39:49;9.73;;;1.40;;
54937;SDS011;52756;52.826;6.214;2022-12-07T01:42:18;7.75;;;1.90;;
54937;SDS011;52756;52.826;6.214;2022-12-07T01:47:46;8.18;;;2.90;;
54937;SDS011;52756;52.826;6.214;2022-12-07T01:50:16;13.25;;;4.35;;
54937;SDS011;52756;52.826;6.214;2022-12-07T01:52:43;8.40;;;2.10;;
54937;SDS011;52756;52.826;6.214;2022-12-07T01:55:13;4.22;;;1.38;;
54937;SDS011;52756;52.826;6.214;2022-12-07T01:57:41;7.45;;;1.75;;
54937;SDS011;52756;52.826;6.214;2022-12-07T02:00:10;5.47;;;1.15;;
54937;SDS011;52756;52.826;6.214;2022-12-07T02:02:38;7.93;;;1.67;;
54937;SDS011;52756;52.826;6.214;2022-12-07T02:05:13;7.03;;;1.85;;
54937;SDS011;52756;52.826;6.214;2022-12-07T02:07:40;5.15;;;1.20;;
54937;SDS011;52756;52.826;6.214;2022-12-07T02:12:43;6.45;;;1.40;;
54937;SDS011;52756;52.826;6.214;2022-12-07T02:15:12;8.93;;;2.65;;
54937;SDS011;52756;52.826;6.214;2022-12-07T02:20:21;3.75;;;1.40;;
54937;SDS011;52756;52.826;6.214;2022-12-07T02:23:00;3.22;;;1.30;;
54937;SDS011;52756;52.826;6.214;2022-12-07T02:28:59;5.35;;;1.05;;
54937;SDS011;52756;52.826;6.214;2022-12-07T02:31:25;4.72;;;2.05;;
54937;SDS011;52756;52.826;6.214;2022-12-07T02:33:57;4.75;;;1.58;;
54937;SDS011;52756;52.826;6.214;2022-12-07T02:36:33;7.70;;;1.77;;
54937;SDS011;52756;52.826;6.214;2022-12-07T02:39:07;7.32;;;1.48;;
54937;SDS011;52756;52.826;6.214;2022-12-07T02:41:43;12.70;;;4.53;;
54937;SDS011;52756;52.826;6.214;2022-12-07T02:44:23;17.15;;;8.95;;
54937;SDS011;52756;52.826;6.214;2022-12-07T02:46:53;14.15;;;5.97;;
54937;SDS011;52756;52.826;6.214;2022-12-07T02:49:22;10.13;;;3.90;;
54937;SDS011;52756;52.826;6.214;2022-12-07T02:51:49;6.85;;;1.60;;
54937;SDS011;52756;52.826;6.214;2022-12-07T02:54:17;7.25;;;1.60;;
54937;SDS011;52756;52.826;6.214;2022-12-07T03:06:49;3.30;;;0.73;;
54937;SDS011;52756;52.826;6.214;2022-12-07T03:09:26;6.03;;;1.08;;
54937;SDS011;52756;52.826;6.214;2022-12-07T03:12:09;5.05;;;0.98;;
54937;SDS011;52756;52.826;6.214;2022-12-07T03:14:59;5.50;;;0.80;;
54937;SDS011;52756;52.826;6.214;2022-12-07T03:17:32;9.13;;;1.33;;
54937;SDS011;52756;52.826;6.214;2022-12-07T03:20:02;5.38;;;1.00;;
54937;SDS011;52756;52.826;6.214;2022-12-07T03:22:33;6.35;;;1.23;;
54937;SDS011;52756;52.826;6.214;2022-12-07T03:25:02;5.88;;;0.82;;
54937;SDS011;52756;52.826;6.214;2022-12-07T03:27:33;4.82;;;0.63;;
54937;SDS011;52756;52.826;6.214;2022-12-07T03:30:06;10.30;;;1.50;;
54937;SDS011;52756;52.826;6.214;2022-12-07T03:32:42;3.97;;;0.88;;
54937;SDS011;52756;52.826;6.214;2022-12-07T03:35:14;6.68;;;0.88;;
54937;SDS011;52756;52.826;6.214;2022-12-07T03:40:23;4.40;;;1.05;;
54937;SDS011;52756;52.826;6.214;2022-12-07T03:42:58;4.40;;;0.80;;
54937;SDS011;52756;52.826;6.214;2022-12-07T03:45:31;5.82;;;1.20;;
54937;SDS011;52756;52.826;6.214;2022-12-07T03:50:52;3.63;;;0.93;;
54937;SDS011;52756;52.826;6.214;2022-12-07T03:53:54;5.15;;;1.50;;
54937;SDS011;52756;52.826;6.214;2022-12-07T03:56:27;5.82;;;0.75;;
54937;SDS011;52756;52.826;6.214;2022-12-07T03:58:54;6.18;;;0.70;;
54937;SDS011;52756;52.826;6.214;2022-12-07T04:01:20;3.30;;;0.70;;
54937;SDS011;52756;52.826;6.214;2022-12-07T04:03:47;10.60;;;1.75;;
54937;SDS011;52756;52.826;6.214;2022-12-07T04:06:13;5.70;;;0.88;;
54937;SDS011;52756;52.826;6.214;2022-12-07T04:08:39;4.40;;;0.80;;
54937;SDS011;52756;52.826;6.214;2022-12-07T04:11:04;4.70;;;1.00;;
54937;SDS011;52756;52.826;6.214;2022-12-07T04:13:30;2.40;;;0.70;;
54937;SDS011;52756;52.826;6.214;2022-12-07T04:16:16;4.28;;;0.80;;
54937;SDS011;52756;52.826;6.214;2022-12-07T04:18:41;3.33;;;0.65;;
54937;SDS011;52756;52.826;6.214;2022-12-07T04:21:07;5.22;;;0.80;;
54937;SDS011;52756;52.826;6.214;2022-12-07T04:23:33;2.90;;;0.60;;
54937;SDS011;52756;52.826;6.214;2022-12-07T04:25:58;3.38;;;0.75;;
54937;SDS011;52756;52.826;6.214;2022-12-07T04:28:24;4.40;;;0.73;;
54937;SDS011;52756;52.826;6.214;2022-12-07T04:30:50;3.53;;;0.60;;
54937;SDS011;52756;52.826;6.214;2022-12-07T04:33:15;6.03;;;1.10;;
54937;SDS011;52756;52.826;6.214;2022-12-07T04:35:42;4.15;;;1.33;;
54937;SDS011;52756;52.826;6.214;2022-12-07T04:38:07;3.08;;;0.82;;
54937;SDS011;52756;52.826;6.214;2022-12-07T04:40:33;4.75;;;0.93;;
54937;SDS011;52756;52.826;6.214;2022-12-07T04:42:59;5.70;;;1.00;;
54937;SDS011;52756;52.826;6.214;2022-12-07T04:45:25;5.13;;;0.90;;
54937;SDS011;52756;52.826;6.214;2022-12-07T04:47:51;2.38;;;0.70;;
54937;SDS011;52756;52.826;6.214;2022-12-07T04:50:16;1.33;;;0.40;;
54937;SDS011;52756;52.826;6.214;2022-12-07T04:52:42;3.08;;;0.95;;
54937;SDS011;52756;52.826;6.214;2022-12-07T04:55:08;3.55;;;0.80;;
54937;SDS011;52756;52.826;6.214;2022-12-07T04:57:34;2.10;;;0.50;;
54937;SDS011;52756;52.826;6.214;2022-12-07T04:59:59;4.47;;;0.50;;
54937;SDS011;52756;52.826;6.214;2022-12-07T05:02:25;4.40;;;0.70;;
54937;SDS011;52756;52.826;6.214;2022-12-07T05:04:51;3.28;;;1.10;;
54937;SDS011;52756;52.826;6.214;2022-12-07T05:07:16;2.95;;;0.80;;
54937;SDS011;52756;52.826;6.214;2022-12-07T05:09:42;5.60;;;0.80;;
54937;SDS011;52756;52.826;6.214;2022-12-07T05:12:08;6.22;;;1.58;;
54937;SDS011;52756;52.826;6.214;2022-12-07T05:14:33;4.10;;;0.65;;
54937;SDS011;52756;52.826;6.214;2022-12-07T05:16:59;4.20;;;0.60;;
54937;SDS011;52756;52.826;6.214;2022-12-07T05:19:25;3.33;;;0.90;;
54937;SDS011;52756;52.826;6.214;2022-12-07T05:21:51;4.82;;;0.70;;
54937;SDS011;52756;52.826;6.214;2022-12-07T05:24:17;4.05;;;0.75;;
54937;SDS011;52756;52.826;6.214;2022-12-07T05:26:43;5.97;;;1.10;;
54937;SDS011;52756;52.826;6.214;2022-12-07T05:29:11;4.97;;;0.80;;
54937;SDS011;52756;52.826;6.214;2022-12-07T05:31:37;5.18;;;0.63;;
54937;SDS011;52756;52.826;6.214;2022-12-07T05:34:03;4.32;;;0.93;;
54937;SDS011;52756;52.826;6.214;2022-12-07T05:36:28;7.32;;;1.48;;
54937;SDS011;52756;52.826;6.214;2022-12-07T05:38:56;5.85;;;1.35;;
54937;SDS011;52756;52.826;6.214;2022-12-07T05:41:22;5.95;;;1.27;;
54937;SDS011;52756;52.826;6.214;2022-12-07T05:44:06;3.70;;;0.80;;
54937;SDS011;52756;52.826;6.214;2022-12-07T05:46:32;2.72;;;0.68;;
54937;SDS011;52756;52.826;6.214;2022-12-07T05:48:58;5.20;;;1.35;;
54937;SDS011;52756;52.826;6.214;2022-12-07T05:51:24;4.97;;;0.75;;
54937;SDS011;52756;52.826;6.214;2022-12-07T05:53:49;3.25;;;0.82;;
54937;SDS011;52756;52.826;6.214;2022-12-07T05:56:15;5.90;;;1.20;;
54937;SDS011;52756;52.826;6.214;2022-12-07T05:58:41;4.95;;;0.77;;
54937;SDS011;52756;52.826;6.214;2022-12-07T06:01:25;4.13;;;0.80;;
54937;SDS011;52756;52.826;6.214;2022-12-07T06:03:51;5.13;;;1.00;;
54937;SDS011;52756;52.826;6.214;2022-12-07T06:06:16;6.28;;;1.10;;
54937;SDS011;52756;52.826;6.214;2022-12-07T06:08:42;7.18;;;1.17;;
54937;SDS011;52756;52.826;6.214;2022-12-07T06:11:08;7.53;;;1.45;;
54937;SDS011;52756;52.826;6.214;2022-12-07T06:13:52;8.02;;;1.45;;
54937;SDS011;52756;52.826;6.214;2022-12-07T06:16:17;5.35;;;1.10;;
54937;SDS011;52756;52.826;6.214;2022-12-07T06:18:43;4.18;;;0.98;;
54937;SDS011;52756;52.826;6.214;2022-12-07T06:21:09;6.22;;;1.10;;
54937;SDS011;52756;52.826;6.214;2022-12-07T06:23:34;5.88;;;0.95;;
54937;SDS011;52756;52.826;6.214;2022-12-07T06:26:00;3.25;;;1.10;;
54937;SDS011;52756;52.826;6.214;2022-12-07T06:28:26;7.15;;;1.08;;
54937;SDS011;52756;52.826;6.214;2022-12-07T06:30:58;3.80;;;0.88;;
54937;SDS011;52756;52.826;6.214;2022-12-07T06:33:25;5.40;;;0.82;;
54937;SDS011;52756;52.826;6.214;2022-12-07T06:35:51;5.22;;;0.90;;
54937;SDS011;52756;52.826;6.214;2022-12-07T06:38:17;7.00;;;1.10;;
54937;SDS011;52756;52.826;6.214;2022-12-07T06:40:43;3.33;;;0.82;;
54937;SDS011;52756;52.826;6.214;2022-12-07T06:43:09;6.22;;;1.00;;
54937;SDS011;52756;52.826;6.214;2022-12-07T06:45:34;7.88;;;1.20;;
54937;SDS011;52756;52.826;6.214;2022-12-07T06:48:00;7.22;;;1.30;;
54937;SDS011;52756;52.826;6.214;2022-12-07T06:50:26;5.93;;;1.48;;
54937;SDS011;52756;52.826;6.214;2022-12-07T06:52:51;6.50;;;1.10;;
54937;SDS011;52756;52.826;6.214;2022-12-07T06:55:17;5.18;;;1.05;;
54937;SDS011;52756;52.826;6.214;2022-12-07T06:57:43;5.45;;;0.80;;
54937;SDS011;52756;52.826;6.214;2022-12-07T07:00:10;4.32;;;0.70;;
54937;SDS011;52756;52.826;6.214;2022-12-07T07:02:36;3.33;;;0.73;;
54937;SDS011;52756;52.826;6.214;2022-12-07T07:05:02;5.53;;;1.00;;
54937;SDS011;52756;52.826;6.214;2022-12-07T07:07:28;3.08;;;0.68;;
54937;SDS011;52756;52.826;6.214;2022-12-07T07:09:54;3.22;;;0.70;;
54937;SDS011;52756;52.826;6.214;2022-12-07T07:12:19;4.35;;;0.90;;
54937;SDS011;52756;52.826;6.214;2022-12-07T07:14:45;2.50;;;0.70;;
54937;SDS011;52756;52.826;6.214;2022-12-07T07:17:12;2.20;;;0.90;;
54937;SDS011;52756;52.826;6.214;2022-12-07T07:19:37;4.28;;;1.00;;
54937;SDS011;52756;52.826;6.214;2022-12-07T07:22:03;5.75;;;0.90;;
54937;SDS011;52756;52.826;6.214;2022-12-07T07:24:29;6.00;;;0.90;;
54937;SDS011;52756;52.826;6.214;2022-12-07T07:26:55;5.07;;;1.02;;
54937;SDS011;52756;52.826;6.214;2022-12-07T07:29:21;4.28;;;0.70;;
54937;SDS011;52756;52.826;6.214;2022-12-07T07:31:47;3.08;;;0.50;;
54937;SDS011;52756;52.826;6.214;2022-12-07T07:34:12;3.67;;;0.80;;
54937;SDS011;52756;52.826;6.214;2022-12-07T07:36:38;6.95;;;1.25;;
54937;SDS011;52756;52.826;6.214;2022-12-07T07:39:04;2.78;;;0.60;;
54937;SDS011;52756;52.826;6.214;2022-12-07T07:41:30;2.53;;;0.50;;
54937;SDS011;52756;52.826;6.214;2022-12-07T07:43:56;3.30;;;0.70;;
54937;SDS011;52756;52.826;6.214;2022-12-07T07:46:22;3.67;;;0.65;;
54937;SDS011;52756;52.826;6.214;2022-12-07T07:48:47;2.97;;;0.93;;
54937;SDS011;52756;52.826;6.214;2022-12-07T07:51:13;2.72;;;0.60;;
54937;SDS011;52756;52.826;6.214;2022-12-07T07:53:39;3.08;;;0.47;;
54937;SDS011;52756;52.826;6.214;2022-12-07T07:56:05;3.58;;;0.77;;
54937;SDS011;52756;52.826;6.214;2022-12-07T07:58:30;3.15;;;0.90;;
54937;SDS011;52756;52.826;6.214;2022-12-07T08:00:56;4.22;;;0.70;;
54937;SDS011;52756;52.826;6.214;2022-12-07T08:03:21;3.10;;;0.65;;
54937;SDS011;52756;52.826;6.214;2022-12-07T08:05:47;3.83;;;0.68;;
54937;SDS011;52756;52.826;6.214;2022-12-07T08:08:13;2.47;;;0.68;;
54937;SDS011;52756;52.826;6.214;2022-12-07T08:10:38;2.58;;;0.90;;
54937;SDS011;52756;52.826;6.214;2022-12-07T08:13:04;6.75;;;1.35;;
54937;SDS011;52756;52.826;6.214;2022-12-07T08:15:36;3.30;;;0.70;;
54937;SDS011;52756;52.826;6.214;2022-12-07T08:18:03;5.53;;;1.27;;
54937;SDS011;52756;52.826;6.214;2022-12-07T08:20:32;5.03;;;0.95;;
54937;SDS011;52756;52.826;6.214;2022-12-07T08:22:59;4.97;;;0.85;;
54937;SDS011;52756;52.826;6.214;2022-12-07T08:25:25;3.88;;;0.60;;
54937;SDS011;52756;52.826;6.214;2022-12-07T08:27:52;3.75;;;0.70;;
54937;SDS011;52756;52.826;6.214;2022-12-07T08:30:18;4.32;;;0.80;;
54937;SDS011;52756;52.826;6.214;2022-12-07T08:32:44;2.67;;;0.80;;
54937;SDS011;52756;52.826;6.214;2022-12-07T08:35:10;5.45;;;1.10;;
54937;SDS011;52756;52.826;6.214;2022-12-07T08:37:36;4.78;;;1.00;;
54937;SDS011;52756;52.826;6.214;2022-12-07T08:40:03;3.60;;;0.98;;
54937;SDS011;52756;52.826;6.214;2022-12-07T08:42:29;4.20;;;1.20;;
54937;SDS011;52756;52.826;6.214;2022-12-07T08:45:03;2.60;;;1.23;;
54937;SDS011;52756;52.826;6.214;2022-12-07T08:47:34;4.90;;;1.00;;
54937;SDS011;52756;52.826;6.214;2022-12-07T08:50:02;4.88;;;1.05;;
54937;SDS011;52756;52.826;6.214;2022-12-07T08:52:31;4.03;;;0.90;;
54937;SDS011;52756;52.826;6.214;2022-12-07T08:54:58;5.88;;;1.20;;
54937;SDS011;52756;52.826;6.214;2022-12-07T08:57:25;5.53;;;1.27;;
54937;SDS011;52756;52.826;6.214;2022-12-07T08:59:53;5.00;;;1.13;;
54937;SDS011;52756;52.826;6.214;2022-12-07T09:02:18;3.92;;;1.08;;
54937;SDS011;52756;52.826;6.214;2022-12-07T09:04:44;5.32;;;1.42;;
54937;SDS011;52756;52.826;6.214;2022-12-07T09:07:10;5.13;;;1.27;;
54937;SDS011;52756;52.826;6.214;2022-12-07T09:09:36;4.03;;;1.75;;
54937;SDS011;52756;52.826;6.214;2022-12-07T09:12:01;3.55;;;1.40;;
54937;SDS011;52756;52.826;6.214;2022-12-07T09:14:27;8.55;;;1.17;;
54937;SDS011;52756;52.826;6.214;2022-12-07T09:16:53;7.53;;;1.65;;
54937;SDS011;52756;52.826;6.214;2022-12-07T09:19:19;6.22;;;1.35;;
54937;SDS011;52756;52.826;6.214;2022-12-07T09:21:45;4.85;;;1.25;;
54937;SDS011;52756;52.826;6.214;2022-12-07T09:24:11;3.30;;;1.20;;
54937;SDS011;52756;52.826;6.214;2022-12-07T09:26:37;5.65;;;2.08;;
54937;SDS011;52756;52.826;6.214;2022-12-07T09:29:05;6.75;;;1.55;;
54937;SDS011;52756;52.826;6.214;2022-12-07T09:31:31;6.50;;;1.30;;
54937;SDS011;52756;52.826;6.214;2022-12-07T09:33:57;10.52;;;1.63;;
54937;SDS011;52756;52.826;6.214;2022-12-07T09:36:24;11.68;;;2.10;;
54937;SDS011;52756;52.826;6.214;2022-12-07T09:38:51;6.28;;;1.20;;
54937;SDS011;52756;52.826;6.214;2022-12-07T09:41:17;5.55;;;1.00;;
54937;SDS011;52756;52.826;6.214;2022-12-07T09:43:43;5.15;;;1.50;;
54937;SDS011;52756;52.826;6.214;2022-12-07T09:46:14;5.82;;;1.10;;
54937;SDS011;52756;52.826;6.214;2022-12-07T09:48:42;4.90;;;0.93;;
54937;SDS011;52756;52.826;6.214;2022-12-07T09:51:17;4.60;;;1.30;;
54937;SDS011;52756;52.826;6.214;2022-12-07T09:53:47;5.28;;;1.13;;
54937;SDS011;52756;52.826;6.214;2022-12-07T09:56:14;8.45;;;1.35;;
54937;SDS011;52756;52.826;6.214;2022-12-07T09:58:41;7.25;;;1.30;;
54937;SDS011;52756;52.826;6.214;2022-12-07T10:03:34;8.07;;;1.20;;
54937;SDS011;52756;52.826;6.214;2022-12-07T10:06:03;5.28;;;1.23;;
54937;SDS011;52756;52.826;6.214;2022-12-07T10:08:30;4.43;;;0.90;;
54937;SDS011;52756;52.826;6.214;2022-12-07T10:10:56;5.32;;;0.88;;
54937;SDS011;52756;52.826;6.214;2022-12-07T10:13:34;4.57;;;0.80;;
54937;SDS011;52756;52.826;6.214;2022-12-07T10:16:01;5.85;;;0.90;;
54937;SDS011;52756;52.826;6.214;2022-12-07T10:18:29;5.80;;;1.40;;
54937;SDS011;52756;52.826;6.214;2022-12-07T10:21:02;6.10;;;1.48;;
54937;SDS011;52756;52.826;6.214;2022-12-07T10:23:32;7.63;;;1.30;;
54937;SDS011;52756;52.826;6.214;2022-12-07T10:25:59;8.32;;;1.63;;
54937;SDS011;52756;52.826;6.214;2022-12-07T10:28:44;4.20;;;1.00;;
54937;SDS011;52756;52.826;6.214;2022-12-07T10:31:28;7.15;;;1.20;;
54937;SDS011;52756;52.826;6.214;2022-12-07T10:33:55;7.47;;;1.77;;
54937;SDS011;52756;52.826;6.214;2022-12-07T10:36:29;7.35;;;1.30;;
54937;SDS011;52756;52.826;6.214;2022-12-07T10:39:23;7.32;;;1.10;;
54937;SDS011;52756;52.826;6.214;2022-12-07T10:44:29;6.65;;;1.90;;
54937;SDS011;52756;52.826;6.214;2022-12-07T10:47:14;5.85;;;1.00;;
54937;SDS011;52756;52.826;6.214;2022-12-07T10:58:49;4.70;;;0.95;;
54937;SDS011;52756;52.826;6.214;2022-12-07T11:01:36;7.20;;;1.05;;
54937;SDS011;52756;52.826;6.214;2022-12-07T11:04:18;4.40;;;1.13;;
54937;SDS011;52756;52.826;6.214;2022-12-07T11:07:14;7.75;;;1.30;;
54937;SDS011;52756;52.826;6.214;2022-12-07T11:12:40;3.45;;;0.63;;
54937;SDS011;52756;52.826;6.214;2022-12-07T11:23:52;6.63;;;1.38;;
54937;SDS011;52756;52.826;6.214;2022-12-07T11:37:55;6.15;;;1.40;;
54937;SDS011;52756;52.826;6.214;2022-12-07T11:40:31;9.52;;;2.03;;
54937;SDS011;52756;52.826;6.214;2022-12-07T11:45:35;7.00;;;1.50;;
54937;SDS011;52756;52.826;6.214;2022-12-07T11:48:10;5.00;;;0.98;;
54937;SDS011;52756;52.826;6.214;2022-12-07T12:01:42;10.18;;;1.20;;
54937;SDS011;52756;52.826;6.214;2022-12-07T12:03:52;7.75;;;1.50;;
54937;SDS011;52756;52.826;6.214;2022-12-07T12:06:21;5.80;;;1.17;;
54937;SDS011;52756;52.826;6.214;2022-12-07T12:09:06;6.30;;;1.15;;
54937;SDS011;52756;52.826;6.214;2022-12-07T12:19:57;3.45;;;1.02;;
54937;SDS011;52756;52.826;6.214;2022-12-07T12:22:34;4.50;;;1.10;;
54937;SDS011;52756;52.826;6.214;2022-12-07T12:25:04;5.70;;;1.33;;
54937;SDS011;52756;52.826;6.214;2022-12-07T12:27:33;4.57;;;1.23;;
54937;SDS011;52756;52.826;6.214;2022-12-07T12:30:02;6.22;;;1.15;;
54937;SDS011;52756;52.826;6.214;2022-12-07T12:32:35;6.28;;;1.00;;
54937;SDS011;52756;52.826;6.214;2022-12-07T12:38:20;5.13;;;1.10;;
54937;SDS011;52756;52.826;6.214;2022-12-07T12:46:46;9.18;;;1.33;;
54937;SDS011;52756;52.826;6.214;2022-12-07T12:54:38;7.82;;;1.27;;
54937;SDS011;52756;52.826;6.214;2022-12-07T12:57:15;7.20;;;1.67;;
54937;SDS011;52756;52.826;6.214;2022-12-07T13:02:21;7.97;;;1.15;;
54937;SDS011;52756;52.826;6.214;2022-12-07T13:15:55;6.57;;;1.05;;
54937;SDS011;52756;52.826;6.214;2022-12-07T13:26:04;4.93;;;0.90;;
54937;SDS011;52756;52.826;6.214;2022-12-07T13:28:46;7.40;;;1.27;;
54937;SDS011;52756;52.826;6.214;2022-12-07T13:33:44;6.53;;;1.02;;
54937;SDS011;52756;52.826;6.214;2022-12-07T13:36:27;4.03;;;1.10;;
54937;SDS011;52756;52.826;6.214;2022-12-07T13:39:11;7.30;;;2.55;;
54937;SDS011;52756;52.826;6.214;2022-12-07T13:41:44;9.45;;;4.20;;
54937;SDS011;52756;52.826;6.214;2022-12-07T13:44:15;16.65;;;7.90;;
54937;SDS011;52756;52.826;6.214;2022-12-07T13:49:38;12.70;;;6.22;;
54937;SDS011;52756;52.826;6.214;2022-12-07T13:54:58;15.30;;;6.95;;
54937;SDS011;52756;52.826;6.214;2022-12-07T13:59:52;20.85;;;8.85;;
54937;SDS011;52756;52.826;6.214;2022-12-07T14:02:19;18.88;;;8.02;;
54937;SDS011;52756;52.826;6.214;2022-12-07T14:10:29;18.45;;;7.13;;
54937;SDS011;52756;52.826;6.214;2022-12-07T14:12:57;27.77;;;11.90;;
54937;SDS011;52756;52.826;6.214;2022-12-07T14:15:24;25.15;;;10.73;;
54937;SDS011;52756;52.826;6.214;2022-12-07T14:17:53;17.55;;;6.47;;
54937;SDS011;52756;52.826;6.214;2022-12-07T14:20:34;13.15;;;5.65;;
54937;SDS011;52756;52.826;6.214;2022-12-07T14:23:01;7.82;;;3.33;;
54937;SDS011;52756;52.826;6.214;2022-12-07T14:26:03;4.68;;;1.80;;
54937;SDS011;52756;52.826;6.214;2022-12-07T14:28:31;7.57;;;2.97;;
54937;SDS011;52756;52.826;6.214;2022-12-07T14:31:10;7.22;;;2.38;;
54937;SDS011;52756;52.826;6.214;2022-12-07T14:33:48;10.40;;;3.30;;
54937;SDS011;52756;52.826;6.214;2022-12-07T14:36:14;7.72;;;2.72;;
54937;SDS011;52756;52.826;6.214;2022-12-07T14:38:40;6.97;;;2.35;;
54937;SDS011;52756;52.826;6.214;2022-12-07T14:41:09;5.82;;;1.95;;
54937;SDS011;52756;52.826;6.214;2022-12-07T14:43:57;3.22;;;1.02;;
54937;SDS011;52756;52.826;6.214;2022-12-07T14:46:22;7.30;;;1.55;;
54937;SDS011;52756;52.826;6.214;2022-12-07T14:48:48;7.65;;;2.75;;
54937;SDS011;52756;52.826;6.214;2022-12-07T14:51:14;7.88;;;2.53;;
54937;SDS011;52756;52.826;6.214;2022-12-07T14:53:41;7.82;;;2.00;;
54937;SDS011;52756;52.826;6.214;2022-12-07T14:56:10;4.80;;;0.82;;
54937;SDS011;52756;52.826;6.214;2022-12-07T14:58:36;7.97;;;1.10;;
54937;SDS011;52756;52.826;6.214;2022-12-07T15:01:02;5.22;;;1.08;;
54937;SDS011;52756;52.826;6.214;2022-12-07T15:03:28;4.22;;;1.00;;
54937;SDS011;52756;52.826;6.214;2022-12-07T15:05:54;6.78;;;1.42;;
54937;SDS011;52756;52.826;6.214;2022-12-07T15:08:20;5.82;;;0.95;;
54937;SDS011;52756;52.826;6.214;2022-12-07T15:10:46;8.70;;;1.50;;
54937;SDS011;52756;52.826;6.214;2022-12-07T15:13:11;3.15;;;0.80;;
54937;SDS011;52756;52.826;6.214;2022-12-07T15:16:00;7.10;;;1.83;;
54937;SDS011;52756;52.826;6.214;2022-12-07T15:18:26;4.68;;;1.08;;
54937;SDS011;52756;52.826;6.214;2022-12-07T15:20:52;3.67;;;1.00;;
54937;SDS011;52756;52.826;6.214;2022-12-07T15:23:17;3.25;;;0.95;;
54937;SDS011;52756;52.826;6.214;2022-12-07T15:25:44;4.70;;;1.33;;
54937;SDS011;52756;52.826;6.214;2022-12-07T15:28:11;3.33;;;0.93;;
54937;SDS011;52756;52.826;6.214;2022-12-07T15:30:38;3.83;;;0.82;;
54937;SDS011;52756;52.826;6.214;2022-12-07T15:33:04;3.75;;;0.95;;
54937;SDS011;52756;52.826;6.214;2022-12-07T15:35:30;4.13;;;1.40;;
54937;SDS011;52756;52.826;6.214;2022-12-07T15:37:55;6.20;;;1.60;;
54937;SDS011;52756;52.826;6.214;2022-12-07T15:40:21;2.60;;;0.77;;
54937;SDS011;52756;52.826;6.214;2022-12-07T15:42:47;2.88;;;0.90;;
54937;SDS011;52756;52.826;6.214;2022-12-07T15:45:12;2.35;;;0.85;;
54937;SDS011;52756;52.826;6.214;2022-12-07T15:47:39;2.38;;;0.70;;
54937;SDS011;52756;52.826;6.214;2022-12-07T15:50:07;4.75;;;1.00;;
54937;SDS011;52756;52.826;6.214;2022-12-07T15:52:36;3.30;;;1.00;;
54937;SDS011;52756;52.826;6.214;2022-12-07T15:55:02;3.78;;;1.02;;
54937;SDS011;52756;52.826;6.214;2022-12-07T15:57:32;3.80;;;0.95;;
54937;SDS011;52756;52.826;6.214;2022-12-07T16:00:00;2.60;;;0.90;;
54937;SDS011;52756;52.826;6.214;2022-12-07T16:02:25;3.40;;;1.00;;
54937;SDS011;52756;52.826;6.214;2022-12-07T16:04:51;3.13;;;1.15;;
54937;SDS011;52756;52.826;6.214;2022-12-07T16:07:18;3.35;;;1.10;;
54937;SDS011;52756;52.826;6.214;2022-12-07T16:09:44;2.92;;;1.45;;
54937;SDS011;52756;52.826;6.214;2022-12-07T16:12:11;4.05;;;1.50;;
54937;SDS011;52756;52.826;6.214;2022-12-07T16:14:38;2.60;;;1.25;;
54937;SDS011;52756;52.826;6.214;2022-12-07T16:17:04;2.33;;;1.05;;
54937;SDS011;52756;52.826;6.214;2022-12-07T16:19:32;3.25;;;1.38;;
54937;SDS011;52756;52.826;6.214;2022-12-07T16:21:58;3.47;;;0.90;;
54937;SDS011;52756;52.826;6.214;2022-12-07T16:24:24;3.40;;;1.33;;
54937;SDS011;52756;52.826;6.214;2022-12-07T16:26:50;2.38;;;1.02;;
54937;SDS011;52756;52.826;6.214;2022-12-07T16:29:16;2.88;;;1.05;;
54937;SDS011;52756;52.826;6.214;2022-12-07T16:31:43;3.25;;;1.10;;
54937;SDS011;52756;52.826;6.214;2022-12-07T16:34:09;4.47;;;1.40;;
54937;SDS011;52756;52.826;6.214;2022-12-07T16:36:35;3.85;;;0.90;;
54937;SDS011;52756;52.826;6.214;2022-12-07T16:39:01;3.28;;;1.30;;
54937;SDS011;52756;52.826;6.214;2022-12-07T16:41:27;2.30;;;0.70;;
54937;SDS011;52756;52.826;6.214;2022-12-07T16:43:53;4.50;;;1.00;;
54937;SDS011;52756;52.826;6.214;2022-12-07T16:46:18;3.28;;;0.95;;
54937;SDS011;52756;52.826;6.214;2022-12-07T16:48:44;4.15;;;0.93;;
54937;SDS011;52756;52.826;6.214;2022-12-07T16:51:12;3.90;;;1.08;;
54937;SDS011;52756;52.826;6.214;2022-12-07T16:53:39;2.42;;;1.52;;
54937;SDS011;52756;52.826;6.214;2022-12-07T16:56:13;2.78;;;0.98;;
54937;SDS011;52756;52.826;6.214;2022-12-07T16:58:40;3.38;;;1.25;;
54937;SDS011;52756;52.826;6.214;2022-12-07T17:01:14;3.67;;;0.90;;
54937;SDS011;52756;52.826;6.214;2022-12-07T17:03:40;1.73;;;1.00;;
54937;SDS011;52756;52.826;6.214;2022-12-07T17:06:13;6.25;;;1.20;;
54937;SDS011;52756;52.826;6.214;2022-12-07T17:08:40;5.22;;;1.58;;
54937;SDS011;52756;52.826;6.214;2022-12-07T17:11:10;3.67;;;1.60;;
54937;SDS011;52756;52.826;6.214;2022-12-07T17:13:37;3.25;;;1.40;;
54937;SDS011;52756;52.826;6.214;2022-12-07T17:16:21;4.13;;;1.55;;